createdAt,value
2018-12-04T00:00:48.888Z,9.04
2018-12-04T00:06:06.381Z,8.72
2018-12-04T00:11:23.884Z,8.45
2018-12-04T00:16:41.348Z,8.34
2018-12-04T00:21:58.968Z,8.19
2018-12-04T00:27:16.452Z,8.08
2018-12-04T00:32:33.943Z,7.96
2018-12-04T00:37:51.414Z,7.93
2018-12-04T00:43:08.870Z,7.88
2018-12-04T00:48:26.338Z,7.86
2018-12-04T00:53:44.101Z,7.79
2018-12-04T00:59:02.295Z,7.79
2018-12-04T01:04:19.772Z,7.71
2018-12-04T01:09:37.230Z,7.70
2018-12-04T01:14:54.854Z,7.66
2018-12-04T01:20:12.320Z,7.57
2018-12-04T01:25:29.787Z,7.56
2018-12-04T01:30:47.331Z,7.49
2018-12-04T01:36:04.887Z,7.55
2018-12-04T01:41:22.335Z,7.52
2018-12-04T01:46:39.852Z,7.58
2018-12-04T01:51:57.366Z,7.56
2018-12-04T01:57:15.209Z,7.52
2018-12-04T02:02:32.679Z,7.45
2018-12-04T02:07:50.157Z,7.45
2018-12-04T02:13:07.617Z,7.48
2018-12-04T02:18:25.095Z,7.44
2018-12-04T02:23:42.569Z,7.46
2018-12-04T02:29:00.065Z,7.45
2018-12-04T02:34:17.537Z,7.43
2018-12-04T02:39:35.028Z,7.40
2018-12-04T02:44:52.534Z,7.43
2018-12-04T02:50:10.002Z,7.39
2018-12-04T02:55:27.482Z,7.39
2018-12-04T03:00:44.954Z,7.40
2018-12-04T03:06:02.417Z,7.38
2018-12-04T03:11:19.943Z,7.40
2018-12-04T03:16:38.078Z,7.38
2018-12-04T03:21:55.542Z,7.44
2018-12-04T03:27:12.999Z,7.44
2018-12-04T03:32:30.485Z,7.39
2018-12-04T03:37:48.111Z,7.44
2018-12-04T03:43:05.611Z,7.36
2018-12-04T03:48:23.240Z,7.40
2018-12-04T03:53:40.704Z,7.42
2018-12-04T03:58:59.092Z,7.28
2018-12-04T04:04:16.570Z,7.29
2018-12-04T04:09:34.034Z,7.12
2018-12-04T04:14:51.531Z,7.14
2018-12-04T04:20:09.026Z,7.10
2018-12-04T04:25:26.497Z,7.06
2018-12-04T04:30:43.984Z,6.93
2018-12-04T04:36:01.457Z,6.82
2018-12-04T04:41:18.936Z,6.76
2018-12-04T04:46:36.415Z,6.77
2018-12-04T04:51:53.890Z,6.78
2018-12-04T04:57:11.366Z,6.66
2018-12-04T05:02:28.853Z,6.62
2018-12-04T05:07:46.467Z,6.59
2018-12-04T05:13:04.009Z,6.52
2018-12-04T05:18:21.507Z,6.54
2018-12-04T05:23:38.970Z,6.55
2018-12-04T05:28:56.455Z,6.48
2018-12-04T05:34:13.927Z,6.37
2018-12-04T05:39:31.557Z,6.39
2018-12-04T05:44:50.281Z,6.39
2018-12-04T05:50:08.015Z,6.38
2018-12-04T05:55:25.554Z,6.46
2018-12-04T06:00:43.027Z,6.43
2018-12-04T06:06:00.518Z,6.37
2018-12-04T06:11:17.986Z,6.35
2018-12-04T06:16:35.469Z,6.30
2018-12-04T06:21:52.945Z,6.34
2018-12-04T06:27:10.765Z,6.26
2018-12-04T06:32:28.270Z,6.27
2018-12-04T06:37:45.753Z,6.20
2018-12-04T06:43:04.808Z,6.18
2018-12-04T06:48:22.289Z,6.19
2018-12-04T06:53:40.583Z,6.16
2018-12-04T06:58:58.072Z,6.16
2018-12-04T07:04:15.664Z,6.21
2018-12-04T07:09:33.172Z,6.25
2018-12-04T07:14:50.670Z,6.28
2018-12-04T07:20:08.321Z,6.17
2018-12-04T07:25:25.884Z,6.12
2018-12-04T07:30:43.359Z,6.10
2018-12-04T07:36:00.850Z,6.07
2018-12-04T07:41:18.362Z,6.03
2018-12-04T07:46:35.846Z,6.02
2018-12-04T07:51:53.330Z,6.22
2018-12-04T07:57:10.810Z,6.23
2018-12-04T08:02:28.290Z,6.24
2018-12-04T08:07:45.765Z,6.27
2018-12-04T08:13:03.269Z,6.35
2018-12-04T08:18:20.737Z,6.37
2018-12-04T08:23:38.243Z,6.33
2018-12-04T08:28:55.769Z,6.34
2018-12-04T08:34:13.232Z,6.26
2018-12-04T08:39:30.727Z,6.25
2018-12-04T08:44:48.219Z,6.25
2018-12-04T08:50:06.173Z,6.25
2018-12-04T08:55:23.705Z,6.18
2018-12-04T09:00:41.165Z,6.14
2018-12-04T09:05:58.652Z,6.15
2018-12-04T09:11:16.128Z,6.25
2018-12-04T09:16:33.616Z,6.31
2018-12-04T09:21:51.155Z,6.49
2018-12-04T09:27:08.753Z,6.41
2018-12-04T09:32:26.394Z,6.40
2018-12-04T09:37:43.881Z,6.46
2018-12-04T09:43:04.178Z,6.52
2018-12-04T09:48:20.881Z,6.57
2018-12-04T09:53:38.875Z,6.67
2018-12-04T09:58:56.366Z,6.71
2018-12-04T10:04:13.836Z,6.62
2018-12-04T10:09:31.309Z,6.63
2018-12-04T10:14:49.112Z,6.77
2018-12-04T10:20:08.924Z,6.72
2018-12-04T10:25:26.401Z,6.57
2018-12-04T10:30:45.870Z,6.65
2018-12-04T10:36:03.481Z,6.76
2018-12-04T10:41:20.976Z,6.92
2018-12-04T10:46:38.470Z,6.93
2018-12-04T10:51:55.964Z,7.04
2018-12-04T10:57:13.436Z,7.22
2018-12-04T11:02:32.894Z,7.47
2018-12-04T11:07:50.408Z,7.78
2018-12-04T11:13:07.898Z,7.73
2018-12-04T11:18:25.375Z,7.77
2018-12-04T11:23:42.931Z,7.89
2018-12-04T11:29:00.411Z,8.19
2018-12-04T11:34:18.006Z,7.97
2018-12-04T11:39:35.497Z,7.66
2018-12-04T11:44:52.975Z,7.50
2018-12-04T11:50:10.558Z,7.35
2018-12-04T11:55:28.023Z,7.21
2018-12-04T12:00:45.602Z,7.14
2018-12-04T12:06:03.169Z,7.12
2018-12-04T12:11:20.633Z,7.06
2018-12-04T12:16:38.110Z,7.03
2018-12-04T12:21:55.590Z,7.01
2018-12-04T12:27:13.060Z,7.02
2018-12-04T12:32:30.534Z,6.96
2018-12-04T12:37:48.014Z,7.01
2018-12-04T12:43:05.495Z,7.08
2018-12-04T12:48:22.964Z,7.14
2018-12-04T12:53:40.473Z,7.25
2018-12-04T12:58:57.953Z,7.36
2018-12-04T13:04:15.424Z,7.43
2018-12-04T13:09:32.902Z,7.54
2018-12-04T13:14:50.397Z,7.69
2018-12-04T13:20:08.067Z,7.82
2018-12-04T13:25:25.551Z,7.89
2018-12-04T13:30:43.174Z,7.93
2018-12-04T13:36:00.676Z,8.16
2018-12-04T13:41:18.151Z,7.96
2018-12-04T13:46:35.627Z,7.96
2018-12-04T13:51:53.115Z,7.97
2018-12-04T13:57:10.613Z,7.83
2018-12-04T14:02:28.083Z,7.57
2018-12-04T14:07:46.006Z,7.45
2018-12-04T14:13:04.048Z,7.36
2018-12-04T14:18:21.891Z,7.25
2018-12-04T14:23:39.516Z,7.17
2018-12-04T14:28:57.066Z,7.14
2018-12-04T14:34:14.569Z,7.06
2018-12-04T14:39:32.425Z,7.04
2018-12-04T14:44:49.915Z,6.93
2018-12-04T14:50:08.373Z,6.89
2018-12-04T14:55:26.026Z,6.91
2018-12-04T15:00:43.591Z,6.72
2018-12-04T15:06:01.071Z,6.60
2018-12-04T15:11:18.529Z,6.40
2018-12-04T15:16:36.106Z,6.24
2018-12-04T15:21:54.554Z,6.07
2018-12-04T15:27:12.149Z,5.95
2018-12-04T15:32:29.882Z,5.66
2018-12-04T15:37:47.386Z,5.43
2018-12-04T15:43:05.686Z,5.39
2018-12-04T15:48:23.244Z,5.31
2018-12-04T15:53:40.916Z,5.23
2018-12-04T15:58:59.418Z,5.02
2018-12-04T16:04:16.957Z,4.80
2018-12-04T16:09:35.201Z,4.81
2018-12-04T16:14:52.751Z,4.70
2018-12-04T16:20:10.212Z,4.59
2018-12-04T16:25:27.687Z,4.51
2018-12-04T16:30:45.238Z,4.44
2018-12-04T16:36:03.729Z,4.35
2018-12-04T16:41:21.238Z,4.20
2018-12-04T16:46:38.760Z,4.16
2018-12-04T16:51:56.370Z,4.06
2018-12-04T16:57:13.933Z,3.97
2018-12-04T17:02:31.420Z,3.89
2018-12-04T17:07:48.897Z,3.70
2018-12-04T17:13:06.374Z,3.68
2018-12-04T17:18:23.894Z,3.70
2018-12-04T17:23:41.352Z,3.61
2018-12-04T17:28:58.827Z,3.53
2018-12-04T17:34:16.362Z,3.58
2018-12-04T17:39:33.905Z,3.37
2018-12-04T17:44:51.406Z,3.34
2018-12-04T17:50:08.969Z,3.35
2018-12-04T17:55:26.453Z,3.22
2018-12-04T18:00:43.931Z,3.31
2018-12-04T18:06:01.436Z,3.23
2018-12-04T18:11:18.915Z,3.13
2018-12-04T18:22:01.429Z,3.48
2018-12-04T18:27:18.902Z,3.24
2018-12-04T18:32:36.391Z,3.00
2018-12-04T18:37:53.870Z,2.92
2018-12-04T18:43:11.433Z,2.73
2018-12-04T18:48:28.985Z,2.59
2018-12-04T18:53:46.479Z,2.49
2018-12-04T18:59:03.954Z,2.46
2018-12-04T19:04:21.433Z,2.46
2018-12-04T19:09:39.007Z,2.41
2018-12-04T19:14:56.493Z,2.46
2018-12-04T19:20:14.081Z,2.36
2018-12-04T19:25:31.605Z,2.36
2018-12-04T19:30:49.093Z,2.29
2018-12-04T19:36:06.592Z,2.15
2018-12-04T19:41:24.121Z,2.12
2018-12-04T19:46:41.666Z,2.12
2018-12-04T19:51:59.207Z,2.09
2018-12-04T19:57:16.726Z,2.08
2018-12-04T20:02:34.290Z,2.17
2018-12-04T20:07:51.829Z,2.06
2018-12-04T20:13:09.306Z,1.96
2018-12-04T20:18:26.799Z,1.86
2018-12-04T20:23:44.359Z,1.92
2018-12-04T20:29:01.941Z,1.81
2018-12-04T20:34:19.449Z,1.89
2018-12-04T20:39:36.955Z,1.74
2018-12-04T20:44:54.432Z,1.69
2018-12-04T20:50:11.991Z,1.65
2018-12-04T20:55:29.471Z,1.61
2018-12-04T21:00:47.318Z,1.59
2018-12-04T21:06:05.661Z,1.56
2018-12-04T21:11:23.145Z,1.50
2018-12-04T21:16:40.637Z,1.57
2018-12-04T21:21:58.181Z,1.61
2018-12-04T21:27:21.220Z,1.38
2018-12-04T21:32:44.558Z,1.37
2018-12-04T21:38:07.622Z,1.38
2018-12-04T21:43:30.786Z,1.28
2018-12-04T21:48:48.277Z,1.29
2018-12-04T21:54:05.779Z,1.26
2018-12-04T21:59:23.290Z,1.32
2018-12-04T22:04:40.802Z,1.27
2018-12-04T22:09:58.262Z,1.21
2018-12-04T22:15:15.861Z,1.34
2018-12-04T22:20:33.776Z,1.32
2018-12-04T22:25:51.281Z,1.21
2018-12-04T22:31:08.774Z,1.33
2018-12-04T22:36:26.729Z,1.32
2018-12-04T22:41:44.203Z,1.48
2018-12-04T22:47:01.753Z,1.45
2018-12-04T22:52:19.248Z,1.47
2018-12-04T22:57:36.730Z,1.38
2018-12-04T23:02:54.213Z,1.44
2018-12-04T23:08:11.698Z,1.44
2018-12-04T23:13:29.189Z,1.40
2018-12-04T23:18:46.663Z,1.31
2018-12-04T23:24:04.223Z,1.40
2018-12-04T23:29:21.686Z,1.37
2018-12-04T23:34:39.156Z,1.42
2018-12-04T23:39:56.907Z,1.43
2018-12-04T23:45:14.386Z,1.42
2018-12-04T23:50:31.865Z,1.40
2018-12-04T23:55:49.337Z,1.42
